sensor_id;sensor_type;location;lat;lon;timestamp;temperature;humidity
69382;DHT22;56560;50.692;12.844;2023-04-15T00:00:45;6.20;89.50
69382;DHT22;56560;50.692;12.844;2023-04-15T00:03:11;6.30;88.90
69382;DHT22;56560;50.692;12.844;2023-04-15T00:05:36;6.20;88.60
69382;DHT22;56560;50.692;12.844;2023-04-15T00:08:02;6.20;89.40
69382;DHT22;56560;50.692;12.844;2023-04-15T00:10:28;6.20;89.50
69382;DHT22;56560;50.692;12.844;2023-04-15T00:12:54;6.30;89.10
69382;DHT22;56560;50.692;12.844;2023-04-15T00:15:20;6.20;89.30
69382;DHT22;56560;50.692;12.844;2023-04-15T00:17:45;6.20;89.70
69382;DHT22;56560;50.692;12.844;2023-04-15T00:20:11;6.20;89.50
69382;DHT22;56560;50.692;12.844;2023-04-15T00:22:37;6.20;89.60
69382;DHT22;56560;50.692;12.844;2023-04-15T00:25:03;6.20;89.60
69382;DHT22;56560;50.692;12.844;2023-04-15T00:27:28;6.30;90.00
69382;DHT22;56560;50.692;12.844;2023-04-15T00:29:54;6.30;89.50
69382;DHT22;56560;50.692;12.844;2023-04-15T00:32:20;6.30;89.20
69382;DHT22;56560;50.692;12.844;2023-04-15T00:34:46;6.30;89.30
69382;DHT22;56560;50.692;12.844;2023-04-15T00:37:12;6.30;88.50
69382;DHT22;56560;50.692;12.844;2023-04-15T00:39:37;6.20;89.30
69382;DHT22;56560;50.692;12.844;2023-04-15T00:42:04;6.30;89.50
69382;DHT22;56560;50.692;12.844;2023-04-15T00:44:30;6.30;89.00
69382;DHT22;56560;50.692;12.844;2023-04-15T00:46:56;6.30;88.90
69382;DHT22;56560;50.692;12.844;2023-04-15T00:49:23;6.30;88.90
69382;DHT22;56560;50.692;12.844;2023-04-15T00:51:49;6.30;89.30
69382;DHT22;56560;50.692;12.844;2023-04-15T00:54:15;6.30;89.20
69382;DHT22;56560;50.692;12.844;2023-04-15T00:56:41;6.20;89.30
69382;DHT22;56560;50.692;12.844;2023-04-15T00:59:07;6.20;89.40
69382;DHT22;56560;50.692;12.844;2023-04-15T01:01:34;6.20;89.40
69382;DHT22;56560;50.692;12.844;2023-04-15T01:04:01;6.10;89.70
69382;DHT22;56560;50.692;12.844;2023-04-15T01:06:26;6.10;89.40
69382;DHT22;56560;50.692;12.844;2023-04-15T01:08:56;6.10;89.70
69382;DHT22;56560;50.692;12.844;2023-04-15T01:11:23;6.10;89.90
69382;DHT22;56560;50.692;12.844;2023-04-15T01:13:57;6.10;89.70
69382;DHT22;56560;50.692;12.844;2023-04-15T01:16:23;6.10;90.00
69382;DHT22;56560;50.692;12.844;2023-04-15T01:18:48;6.10;89.90
69382;DHT22;56560;50.692;12.844;2023-04-15T01:21:14;6.00;90.20
69382;DHT22;56560;50.692;12.844;2023-04-15T01:23:40;6.00;90.20
69382;DHT22;56560;50.692;12.844;2023-04-15T01:26:06;6.10;90.10
69382;DHT22;56560;50.692;12.844;2023-04-15T01:28:36;6.00;90.40
69382;DHT22;56560;50.692;12.844;2023-04-15T01:31:20;6.00;90.70
69382;DHT22;56560;50.692;12.844;2023-04-15T01:33:46;6.10;90.50
69382;DHT22;56560;50.692;12.844;2023-04-15T01:36:11;6.10;89.80
69382;DHT22;56560;50.692;12.844;2023-04-15T01:38:38;6.10;90.20
69382;DHT22;56560;50.692;12.844;2023-04-15T01:41:03;6.20;90.20
69382;DHT22;56560;50.692;12.844;2023-04-15T01:43:31;6.10;90.40
69382;DHT22;56560;50.692;12.844;2023-04-15T01:45:57;6.10;90.20
69382;DHT22;56560;50.692;12.844;2023-04-15T01:48:22;6.10;89.80
69382;DHT22;56560;50.692;12.844;2023-04-15T01:50:48;6.10;89.80
69382;DHT22;56560;50.692;12.844;2023-04-15T01:53:14;6.10;90.40
69382;DHT22;56560;50.692;12.844;2023-04-15T01:55:40;6.10;90.20
69382;DHT22;56560;50.692;12.844;2023-04-15T01:58:06;6.10;90.00
69382;DHT22;56560;50.692;12.844;2023-04-15T02:00:32;6.00;89.90
69382;DHT22;56560;50.692;12.844;2023-04-15T02:02:57;6.00;90.30
69382;DHT22;56560;50.692;12.844;2023-04-15T02:05:24;6.00;90.40
69382;DHT22;56560;50.692;12.844;2023-04-15T02:07:50;5.90;90.30
69382;DHT22;56560;50.692;12.844;2023-04-15T02:10:16;5.90;91.10
69382;DHT22;56560;50.692;12.844;2023-04-15T02:12:41;6.00;90.80
69382;DHT22;56560;50.692;12.844;2023-04-15T02:15:08;6.00;90.50
69382;DHT22;56560;50.692;12.844;2023-04-15T02:17:35;6.00;91.10
69382;DHT22;56560;50.692;12.844;2023-04-15T02:20:02;6.00;90.50
69382;DHT22;56560;50.692;12.844;2023-04-15T02:22:30;6.00;91.00
69382;DHT22;56560;50.692;12.844;2023-04-15T02:24:56;6.00;90.50
69382;DHT22;56560;50.692;12.844;2023-04-15T02:27:21;6.00;90.50
69382;DHT22;56560;50.692;12.844;2023-04-15T02:29:47;6.00;90.60
69382;DHT22;56560;50.692;12.844;2023-04-15T02:32:15;6.00;90.90
69382;DHT22;56560;50.692;12.844;2023-04-15T02:34:41;5.90;91.00
69382;DHT22;56560;50.692;12.844;2023-04-15T02:37:08;6.00;91.10
69382;DHT22;56560;50.692;12.844;2023-04-15T02:39:33;6.00;91.00
69382;DHT22;56560;50.692;12.844;2023-04-15T02:41:59;6.00;90.40
69382;DHT22;56560;50.692;12.844;2023-04-15T02:44:26;6.00;90.30
69382;DHT22;56560;50.692;12.844;2023-04-15T02:46:52;5.90;90.20
69382;DHT22;56560;50.692;12.844;2023-04-15T02:49:22;5.90;90.50
69382;DHT22;56560;50.692;12.844;2023-04-15T02:51:48;5.90;91.00
69382;DHT22;56560;50.692;12.844;2023-04-15T02:54:23;5.90;91.10
69382;DHT22;56560;50.692;12.844;2023-04-15T02:56:49;6.00;90.70
69382;DHT22;56560;50.692;12.844;2023-04-15T02:59:15;5.90;91.00
69382;DHT22;56560;50.692;12.844;2023-04-15T03:01:41;5.90;91.30
69382;DHT22;56560;50.692;12.844;2023-04-15T03:04:06;5.90;91.40
69382;DHT22;56560;50.692;12.844;2023-04-15T03:06:33;6.00;90.60
69382;DHT22;56560;50.692;12.844;2023-04-15T03:08:59;6.00;90.80
69382;DHT22;56560;50.692;12.844;2023-04-15T03:11:27;5.90;90.20
69382;DHT22;56560;50.692;12.844;2023-04-15T03:13:53;5.90;90.60
69382;DHT22;56560;50.692;12.844;2023-04-15T03:16:18;5.80;91.10
69382;DHT22;56560;50.692;12.844;2023-04-15T03:18:44;5.90;91.50
69382;DHT22;56560;50.692;12.844;2023-04-15T03:21:10;5.90;90.70
69382;DHT22;56560;50.692;12.844;2023-04-15T03:23:35;5.90;90.70
69382;DHT22;56560;50.692;12.844;2023-04-15T03:26:02;6.00;90.80
69382;DHT22;56560;50.692;12.844;2023-04-15T03:28:27;5.90;90.70
69382;DHT22;56560;50.692;12.844;2023-04-15T03:30:54;6.00;90.30
69382;DHT22;56560;50.692;12.844;2023-04-15T03:33:20;6.00;90.20
69382;DHT22;56560;50.692;12.844;2023-04-15T03:35:45;5.90;90.20
69382;DHT22;56560;50.692;12.844;2023-04-15T03:38:11;6.00;90.40
69382;DHT22;56560;50.692;12.844;2023-04-15T03:40:39;6.00;90.40
69382;DHT22;56560;50.692;12.844;2023-04-15T03:43:05;5.90;90.30
69382;DHT22;56560;50.692;12.844;2023-04-15T03:45:31;5.90;90.80
69382;DHT22;56560;50.692;12.844;2023-04-15T03:47:57;5.90;91.10
69382;DHT22;56560;50.692;12.844;2023-04-15T03:50:23;5.90;90.30
69382;DHT22;56560;50.692;12.844;2023-04-15T03:52:51;5.90;90.90
69382;DHT22;56560;50.692;12.844;2023-04-15T03:55:16;5.90;90.60
69382;DHT22;56560;50.692;12.844;2023-04-15T03:57:42;6.00;90.60
69382;DHT22;56560;50.692;12.844;2023-04-15T04:00:08;5.90;90.70
69382;DHT22;56560;50.692;12.844;2023-04-15T04:02:37;5.90;90.50
69382;DHT22;56560;50.692;12.844;2023-04-15T04:05:02;5.90;91.00
69382;DHT22;56560;50.692;12.844;2023-04-15T04:07:28;6.00;90.70
69382;DHT22;56560;50.692;12.844;2023-04-15T04:09:56;6.00;90.30
69382;DHT22;56560;50.692;12.844;2023-04-15T04:12:22;6.00;90.30
69382;DHT22;56560;50.692;12.844;2023-04-15T04:14:47;6.00;89.70
69382;DHT22;56560;50.692;12.844;2023-04-15T04:17:13;6.00;90.50
69382;DHT22;56560;50.692;12.844;2023-04-15T04:19:38;6.00;90.40
69382;DHT22;56560;50.692;12.844;2023-04-15T04:22:04;6.10;90.60
69382;DHT22;56560;50.692;12.844;2023-04-15T04:24:30;6.00;90.20
69382;DHT22;56560;50.692;12.844;2023-04-15T04:26:56;6.00;90.40
69382;DHT22;56560;50.692;12.844;2023-04-15T04:29:22;6.00;90.10
69382;DHT22;56560;50.692;12.844;2023-04-15T04:31:48;6.00;90.10
69382;DHT22;56560;50.692;12.844;2023-04-15T04:34:14;6.00;90.30
69382;DHT22;56560;50.692;12.844;2023-04-15T04:36:40;6.00;90.60
69382;DHT22;56560;50.692;12.844;2023-04-15T04:39:06;6.00;90.70
69382;DHT22;56560;50.692;12.844;2023-04-15T04:41:32;6.00;90.40
69382;DHT22;56560;50.692;12.844;2023-04-15T04:43:58;6.10;90.40
69382;DHT22;56560;50.692;12.844;2023-04-15T04:46:23;6.10;90.00
69382;DHT22;56560;50.692;12.844;2023-04-15T04:48:49;6.10;90.20
69382;DHT22;56560;50.692;12.844;2023-04-15T04:51:15;6.10;90.00
69382;DHT22;56560;50.692;12.844;2023-04-15T04:53:41;6.10;90.40
69382;DHT22;56560;50.692;12.844;2023-04-15T04:56:07;6.10;89.90
69382;DHT22;56560;50.692;12.844;2023-04-15T04:58:33;6.00;89.90
69382;DHT22;56560;50.692;12.844;2023-04-15T05:00:59;6.00;90.10
69382;DHT22;56560;50.692;12.844;2023-04-15T05:03:25;6.00;90.60
69382;DHT22;56560;50.692;12.844;2023-04-15T05:05:51;6.00;90.20
69382;DHT22;56560;50.692;12.844;2023-04-15T05:08:17;6.00;90.10
69382;DHT22;56560;50.692;12.844;2023-04-15T05:10:43;6.00;90.30
69382;DHT22;56560;50.692;12.844;2023-04-15T05:13:08;6.10;90.10
69382;DHT22;56560;50.692;12.844;2023-04-15T05:15:34;6.20;89.90
69382;DHT22;56560;50.692;12.844;2023-04-15T05:18:01;6.10;90.00
69382;DHT22;56560;50.692;12.844;2023-04-15T05:20:27;6.10;89.90
69382;DHT22;56560;50.692;12.844;2023-04-15T05:22:53;6.10;90.10
69382;DHT22;56560;50.692;12.844;2023-04-15T05:25:19;6.20;89.50
69382;DHT22;56560;50.692;12.844;2023-04-15T05:27:44;6.20;89.90
69382;DHT22;56560;50.692;12.844;2023-04-15T05:30:10;6.20;89.60
69382;DHT22;56560;50.692;12.844;2023-04-15T05:32:36;6.20;89.90
69382;DHT22;56560;50.692;12.844;2023-04-15T05:35:02;6.20;89.70
69382;DHT22;56560;50.692;12.844;2023-04-15T05:37:27;6.30;89.50
69382;DHT22;56560;50.692;12.844;2023-04-15T05:39:53;6.30;89.20
69382;DHT22;56560;50.692;12.844;2023-04-15T05:42:19;6.30;89.40
69382;DHT22;56560;50.692;12.844;2023-04-15T05:44:44;6.30;89.40
69382;DHT22;56560;50.692;12.844;2023-04-15T05:47:10;6.30;89.20
69382;DHT22;56560;50.692;12.844;2023-04-15T05:49:36;6.30;89.10
69382;DHT22;56560;50.692;12.844;2023-04-15T05:52:02;6.30;89.50
69382;DHT22;56560;50.692;12.844;2023-04-15T05:54:27;6.40;89.20
69382;DHT22;56560;50.692;12.844;2023-04-15T05:56:53;6.40;89.20
69382;DHT22;56560;50.692;12.844;2023-04-15T05:59:19;6.40;89.00
69382;DHT22;56560;50.692;12.844;2023-04-15T06:01:45;6.40;89.50
69382;DHT22;56560;50.692;12.844;2023-04-15T06:04:10;6.40;88.90
69382;DHT22;56560;50.692;12.844;2023-04-15T06:06:36;6.40;88.90
69382;DHT22;56560;50.692;12.844;2023-04-15T06:09:03;6.30;88.70
69382;DHT22;56560;50.692;12.844;2023-04-15T06:11:28;6.30;89.30
69382;DHT22;56560;50.692;12.844;2023-04-15T06:13:54;6.30;89.50
69382;DHT22;56560;50.692;12.844;2023-04-15T06:16:19;6.40;89.30
69382;DHT22;56560;50.692;12.844;2023-04-15T06:18:45;6.40;89.20
69382;DHT22;56560;50.692;12.844;2023-04-15T06:21:11;6.50;88.80
69382;DHT22;56560;50.692;12.844;2023-04-15T06:23:37;6.50;89.10
69382;DHT22;56560;50.692;12.844;2023-04-15T06:26:02;6.60;89.20
69382;DHT22;56560;50.692;12.844;2023-04-15T06:28:28;6.70;88.90
69382;DHT22;56560;50.692;12.844;2023-04-15T06:30:54;6.70;88.40
69382;DHT22;56560;50.692;12.844;2023-04-15T06:33:20;6.70;87.60
69382;DHT22;56560;50.692;12.844;2023-04-15T06:35:45;6.70;87.30
69382;DHT22;56560;50.692;12.844;2023-04-15T06:38:11;6.70;87.90
69382;DHT22;56560;50.692;12.844;2023-04-15T06:40:39;6.70;87.70
69382;DHT22;56560;50.692;12.844;2023-04-15T06:43:05;6.70;87.70
69382;DHT22;56560;50.692;12.844;2023-04-15T06:45:31;6.70;88.10
69382;DHT22;56560;50.692;12.844;2023-04-15T06:47:56;6.70;88.00
69382;DHT22;56560;50.692;12.844;2023-04-15T06:50:22;6.70;87.80
69382;DHT22;56560;50.692;12.844;2023-04-15T06:52:48;6.80;87.70
69382;DHT22;56560;50.692;12.844;2023-04-15T06:55:14;6.80;87.10
69382;DHT22;56560;50.692;12.844;2023-04-15T06:57:39;6.90;87.40
69382;DHT22;56560;50.692;12.844;2023-04-15T07:00:06;7.00;86.70
69382;DHT22;56560;50.692;12.844;2023-04-15T07:02:32;7.10;86.60
69382;DHT22;56560;50.692;12.844;2023-04-15T07:04:58;7.10;87.00
69382;DHT22;56560;50.692;12.844;2023-04-15T07:07:23;7.10;86.80
69382;DHT22;56560;50.692;12.844;2023-04-15T07:09:50;7.20;87.10
69382;DHT22;56560;50.692;12.844;2023-04-15T07:12:16;7.30;86.70
69382;DHT22;56560;50.692;12.844;2023-04-15T07:14:42;7.30;86.50
69382;DHT22;56560;50.692;12.844;2023-04-15T07:17:08;7.40;85.30
69382;DHT22;56560;50.692;12.844;2023-04-15T07:19:34;7.40;85.10
69382;DHT22;56560;50.692;12.844;2023-04-15T07:22:00;7.50;84.70
69382;DHT22;56560;50.692;12.844;2023-04-15T07:24:26;7.60;85.20
69382;DHT22;56560;50.692;12.844;2023-04-15T07:26:54;7.70;84.70
69382;DHT22;56560;50.692;12.844;2023-04-15T07:29:24;7.90;84.30
69382;DHT22;56560;50.692;12.844;2023-04-15T07:32:08;8.00;82.80
69382;DHT22;56560;50.692;12.844;2023-04-15T07:34:54;8.10;82.00
69382;DHT22;56560;50.692;12.844;2023-04-15T17:40:54;9.90;78.80
69382;DHT22;56560;50.692;12.844;2023-04-15T17:43:20;9.60;79.40
69382;DHT22;56560;50.692;12.844;2023-04-15T17:45:45;9.40;80.00
69382;DHT22;56560;50.692;12.844;2023-04-15T17:48:12;9.40;80.60
69382;DHT22;56560;50.692;12.844;2023-04-15T17:50:37;9.40;80.50
69382;DHT22;56560;50.692;12.844;2023-04-15T17:53:04;9.30;80.90
69382;DHT22;56560;50.692;12.844;2023-04-15T17:55:33;9.30;81.00
69382;DHT22;56560;50.692;12.844;2023-04-15T17:57:59;9.40;80.80
69382;DHT22;56560;50.692;12.844;2023-04-15T18:00:25;9.40;80.80
69382;DHT22;56560;50.692;12.844;2023-04-15T18:02:50;9.30;81.00
69382;DHT22;56560;50.692;12.844;2023-04-15T18:05:17;9.30;81.10
69382;DHT22;56560;50.692;12.844;2023-04-15T18:07:44;9.30;81.30
69382;DHT22;56560;50.692;12.844;2023-04-15T18:10:10;9.20;81.60
69382;DHT22;56560;50.692;12.844;2023-04-15T18:12:36;9.20;81.40
69382;DHT22;56560;50.692;12.844;2023-04-15T18:15:02;9.20;81.10
69382;DHT22;56560;50.692;12.844;2023-04-15T18:17:29;9.20;80.70
69382;DHT22;56560;50.692;12.844;2023-04-15T18:19:54;9.20;80.60
69382;DHT22;56560;50.692;12.844;2023-04-15T18:22:20;9.20;80.50
69382;DHT22;56560;50.692;12.844;2023-04-15T18:24:46;9.20;80.40
69382;DHT22;56560;50.692;12.844;2023-04-15T18:27:14;9.10;80.30
69382;DHT22;56560;50.692;12.844;2023-04-15T18:29:40;9.10;80.40
69382;DHT22;56560;50.692;12.844;2023-04-15T18:32:07;9.00;80.50
69382;DHT22;56560;50.692;12.844;2023-04-15T18:34:33;9.00;81.00
69382;DHT22;56560;50.692;12.844;2023-04-15T18:36:58;9.10;80.70
69382;DHT22;56560;50.692;12.844;2023-04-15T18:39:25;9.10;80.40
69382;DHT22;56560;50.692;12.844;2023-04-15T18:41:52;9.10;80.40
69382;DHT22;56560;50.692;12.844;2023-04-15T18:44:18;9.10;80.70
69382;DHT22;56560;50.692;12.844;2023-04-15T18:46:43;9.00;80.80
69382;DHT22;56560;50.692;12.844;2023-04-15T18:49:10;9.00;80.80
69382;DHT22;56560;50.692;12.844;2023-04-15T18:51:36;9.00;80.80
69382;DHT22;56560;50.692;12.844;2023-04-15T18:54:02;9.00;80.80
69382;DHT22;56560;50.692;12.844;2023-04-15T18:56:27;9.00;80.70
69382;DHT22;56560;50.692;12.844;2023-04-15T18:58:54;9.10;80.60
69382;DHT22;56560;50.692;12.844;2023-04-15T19:01:20;9.10;80.70
69382;DHT22;56560;50.692;12.844;2023-04-15T19:03:46;9.10;80.40
69382;DHT22;56560;50.692;12.844;2023-04-15T19:06:11;9.10;81.00
69382;DHT22;56560;50.692;12.844;2023-04-15T19:08:37;9.00;81.10
69382;DHT22;56560;50.692;12.844;2023-04-15T19:11:03;9.00;81.40
69382;DHT22;56560;50.692;12.844;2023-04-15T19:13:29;9.00;81.70
69382;DHT22;56560;50.692;12.844;2023-04-15T19:15:54;8.90;82.40
69382;DHT22;56560;50.692;12.844;2023-04-15T19:18:20;8.90;82.60
69382;DHT22;56560;50.692;12.844;2023-04-15T19:20:47;8.90;82.90
69382;DHT22;56560;50.692;12.844;2023-04-15T19:23:14;8.90;82.90
69382;DHT22;56560;50.692;12.844;2023-04-15T19:25:40;8.90;82.80
69382;DHT22;56560;50.692;12.844;2023-04-15T19:28:06;8.90;82.60
69382;DHT22;56560;50.692;12.844;2023-04-15T19:30:34;8.90;82.40
69382;DHT22;56560;50.692;12.844;2023-04-15T19:33:00;8.90;82.90
69382;DHT22;56560;50.692;12.844;2023-04-15T19:35:26;8.90;82.80
69382;DHT22;56560;50.692;12.844;2023-04-15T19:37:52;8.90;82.80
69382;DHT22;56560;50.692;12.844;2023-04-15T19:40:18;8.80;82.50
69382;DHT22;56560;50.692;12.844;2023-04-15T19:42:43;8.80;82.50
69382;DHT22;56560;50.692;12.844;2023-04-15T19:45:09;8.70;83.30
69382;DHT22;56560;50.692;12.844;2023-04-15T19:47:35;8.70;83.90
69382;DHT22;56560;50.692;12.844;2023-04-15T19:50:01;8.70;83.90
69382;DHT22;56560;50.692;12.844;2023-04-15T19:52:26;8.60;84.10
69382;DHT22;56560;50.692;12.844;2023-04-15T19:54:52;8.60;84.10
69382;DHT22;56560;50.692;12.844;2023-04-15T19:57:18;8.60;84.30
69382;DHT22;56560;50.692;12.844;2023-04-15T19:59:43;8.70;84.10
69382;DHT22;56560;50.692;12.844;2023-04-15T20:02:09;8.70;83.70
69382;DHT22;56560;50.692;12.844;2023-04-15T20:04:34;8.70;83.80
69382;DHT22;56560;50.692;12.844;2023-04-15T20:07:00;8.70;83.80
69382;DHT22;56560;50.692;12.844;2023-04-15T20:09:26;8.70;83.80
69382;DHT22;56560;50.692;12.844;2023-04-15T20:11:51;8.60;84.00
69382;DHT22;56560;50.692;12.844;2023-04-15T20:14:17;8.60;84.40
69382;DHT22;56560;50.692;12.844;2023-04-15T20:16:43;8.60;84.50
69382;DHT22;56560;50.692;12.844;2023-04-15T20:19:08;8.60;84.50
69382;DHT22;56560;50.692;12.844;2023-04-15T20:21:36;8.60;84.60
69382;DHT22;56560;50.692;12.844;2023-04-15T20:24:02;8.60;84.40
69382;DHT22;56560;50.692;12.844;2023-04-15T20:26:27;8.50;84.50
69382;DHT22;56560;50.692;12.844;2023-04-15T20:28:53;8.50;84.60
69382;DHT22;56560;50.692;12.844;2023-04-15T20:31:20;8.50;84.40
69382;DHT22;56560;50.692;12.844;2023-04-15T20:33:46;8.50;84.40
69382;DHT22;56560;50.692;12.844;2023-04-15T20:36:12;8.40;84.80
69382;DHT22;56560;50.692;12.844;2023-04-15T20:38:38;8.40;85.20
69382;DHT22;56560;50.692;12.844;2023-04-15T20:41:04;8.40;85.00
69382;DHT22;56560;50.692;12.844;2023-04-15T20:43:30;8.40;85.00
69382;DHT22;56560;50.692;12.844;2023-04-15T20:45:55;8.30;85.00
69382;DHT22;56560;50.692;12.844;2023-04-15T20:48:21;8.30;84.80
69382;DHT22;56560;50.692;12.844;2023-04-15T20:50:48;8.40;85.20
69382;DHT22;56560;50.692;12.844;2023-04-15T20:53:13;8.40;85.00
69382;DHT22;56560;50.692;12.844;2023-04-15T20:55:39;8.40;85.00
69382;DHT22;56560;50.692;12.844;2023-04-15T20:58:05;8.40;85.00
69382;DHT22;56560;50.692;12.844;2023-04-15T21:00:31;8.30;85.10
69382;DHT22;56560;50.692;12.844;2023-04-15T21:02:57;8.30;85.20
69382;DHT22;56560;50.692;12.844;2023-04-15T21:05:23;8.30;85.10
69382;DHT22;56560;50.692;12.844;2023-04-15T21:07:48;8.30;85.30
69382;DHT22;56560;50.692;12.844;2023-04-15T21:10:14;8.30;85.40
69382;DHT22;56560;50.692;12.844;2023-04-15T21:12:40;8.30;85.30
69382;DHT22;56560;50.692;12.844;2023-04-15T21:15:07;8.30;85.30
69382;DHT22;56560;50.692;12.844;2023-04-15T21:17:33;8.30;85.50
69382;DHT22;56560;50.692;12.844;2023-04-15T21:20:00;8.30;85.50
69382;DHT22;56560;50.692;12.844;2023-04-15T21:22:26;8.30;85.40
69382;DHT22;56560;50.692;12.844;2023-04-15T21:24:51;8.30;85.30
69382;DHT22;56560;50.692;12.844;2023-04-15T21:27:17;8.30;85.10
69382;DHT22;56560;50.692;12.844;2023-04-15T21:29:43;8.30;85.50
69382;DHT22;56560;50.692;12.844;2023-04-15T21:32:08;8.30;85.60
69382;DHT22;56560;50.692;12.844;2023-04-15T21:34:34;8.30;85.60
69382;DHT22;56560;50.692;12.844;2023-04-15T21:37:00;8.30;85.90
69382;DHT22;56560;50.692;12.844;2023-04-15T21:39:25;8.30;85.80
69382;DHT22;56560;50.692;12.844;2023-04-15T21:41:51;8.30;85.70
69382;DHT22;56560;50.692;12.844;2023-04-15T21:44:16;8.30;85.40
69382;DHT22;56560;50.692;12.844;2023-04-15T21:46:42;8.40;85.90
69382;DHT22;56560;50.692;12.844;2023-04-15T21:49:08;8.30;85.50
69382;DHT22;56560;50.692;12.844;2023-04-15T21:51:33;8.30;85.90
69382;DHT22;56560;50.692;12.844;2023-04-15T21:53:59;8.30;85.80
69382;DHT22;56560;50.692;12.844;2023-04-15T21:56:25;8.30;85.80
69382;DHT22;56560;50.692;12.844;2023-04-15T21:58:55;8.20;86.00
69382;DHT22;56560;50.692;12.844;2023-04-15T22:01:22;8.30;86.00
69382;DHT22;56560;50.692;12.844;2023-04-15T22:03:48;8.30;86.10
69382;DHT22;56560;50.692;12.844;2023-04-15T22:06:13;8.30;86.00
69382;DHT22;56560;50.692;12.844;2023-04-15T22:08:39;8.30;85.60
69382;DHT22;56560;50.692;12.844;2023-04-15T22:11:08;8.40;85.40
69382;DHT22;56560;50.692;12.844;2023-04-15T22:13:33;8.40;85.40
69382;DHT22;56560;50.692;12.844;2023-04-15T22:15:59;8.30;85.40
69382;DHT22;56560;50.692;12.844;2023-04-15T22:18:25;8.30;85.80
69382;DHT22;56560;50.692;12.844;2023-04-15T22:20:50;8.30;85.90
69382;DHT22;56560;50.692;12.844;2023-04-15T22:23:16;8.30;85.80
69382;DHT22;56560;50.692;12.844;2023-04-15T22:25:45;8.30;85.80
69382;DHT22;56560;50.692;12.844;2023-04-15T22:28:11;8.40;86.00
69382;DHT22;56560;50.692;12.844;2023-04-15T22:30:38;8.40;85.90
69382;DHT22;56560;50.692;12.844;2023-04-15T22:33:04;8.40;85.60
69382;DHT22;56560;50.692;12.844;2023-04-15T22:35:30;8.30;85.80
69382;DHT22;56560;50.692;12.844;2023-04-15T22:37:56;8.30;85.70
69382;DHT22;56560;50.692;12.844;2023-04-15T22:40:22;8.30;85.80
69382;DHT22;56560;50.692;12.844;2023-04-15T22:42:47;8.30;86.00
69382;DHT22;56560;50.692;12.844;2023-04-15T22:45:13;8.30;85.70
69382;DHT22;56560;50.692;12.844;2023-04-15T22:47:39;8.40;86.10
69382;DHT22;56560;50.692;12.844;2023-04-15T22:50:05;8.40;85.80
69382;DHT22;56560;50.692;12.844;2023-04-15T22:52:31;8.40;85.80
69382;DHT22;56560;50.692;12.844;2023-04-15T22:54:57;8.40;85.80
69382;DHT22;56560;50.692;12.844;2023-04-15T22:57:23;8.40;85.60
69382;DHT22;56560;50.692;12.844;2023-04-15T22:59:48;8.40;85.70
69382;DHT22;56560;50.692;12.844;2023-04-15T23:02:14;8.40;85.60
69382;DHT22;56560;50.692;12.844;2023-04-15T23:04:39;8.40;85.50
69382;DHT22;56560;50.692;12.844;2023-04-15T23:07:05;8.40;85.50
69382;DHT22;56560;50.692;12.844;2023-04-15T23:09:31;8.40;85.50
69382;DHT22;56560;50.692;12.844;2023-04-15T23:11:56;8.30;86.10
69382;DHT22;56560;50.692;12.844;2023-04-15T23:14:22;8.30;86.00
69382;DHT22;56560;50.692;12.844;2023-04-15T23:16:48;8.30;86.50
69382;DHT22;56560;50.692;12.844;2023-04-15T23:19:13;8.30;86.30
69382;DHT22;56560;50.692;12.844;2023-04-15T23:21:40;8.30;86.60
69382;DHT22;56560;50.692;12.844;2023-04-15T23:24:05;8.30;86.70
69382;DHT22;56560;50.692;12.844;2023-04-15T23:26:31;8.40;86.40
69382;DHT22;56560;50.692;12.844;2023-04-15T23:28:56;8.40;86.30
69382;DHT22;56560;50.692;12.844;2023-04-15T23:31:22;8.40;86.00
69382;DHT22;56560;50.692;12.844;2023-04-15T23:33:48;8.30;86.20
69382;DHT22;56560;50.692;12.844;2023-04-15T23:36:13;8.30;86.40
69382;DHT22;56560;50.692;12.844;2023-04-15T23:38:39;8.30;86.30
69382;DHT22;56560;50.692;12.844;2023-04-15T23:41:05;8.30;86.00
69382;DHT22;56560;50.692;12.844;2023-04-15T23:43:30;8.30;86.00
69382;DHT22;56560;50.692;12.844;2023-04-15T23:45:56;8.30;85.70
69382;DHT22;56560;50.692;12.844;2023-04-15T23:48:22;8.30;85.70
69382;DHT22;56560;50.692;12.844;2023-04-15T23:50:48;8.30;85.80
69382;DHT22;56560;50.692;12.844;2023-04-15T23:53:14;8.30;85.80
69382;DHT22;56560;50.692;12.844;2023-04-15T23:55:40;8.30;85.70
69382;DHT22;56560;50.692;12.844;2023-04-15T23:58:05;8.30;85.70
